Nearby METAR Reports

 

KALB - Albany, New York, USA
Distance from station: E 47mi, 75km
Updated: Thu, 22-Feb-2018 4:51am EST
Overcast
Overcast
 Wind from N
Wind: N 6 mph , 9 km/h
Temperature: 37°F , 3°C
Wind Chill: 32°F , 0°C
Dew Point: 27°F , -3°C
Humidity: 65%
Barometer: 30.60 inHg , 1036.2 hPa
Clouds: Overcast
Visibility: 10 miles , 16 km
Cloud details: Few Clouds 6000 ft
Mostly cloudy 9000 ft
Overcast 11000 ft
2018/02/22 09:51 KALB 220951Z 01005KT 10SM FEW060 BKN090 OVC110 03/M03 A3060 RMK AO2 SLP364 PRESENT WX VCSH T00331028
KSLK - Saranac Lake, New York, USA
Distance from station: N 110mi, 177km
Updated: Thu, 22-Feb-2018 4:51am EST
Light snow, Mostly cloudy
Light snow, Mostly cloudy
 Wind from NNE
Wind: NNE 5 mph , 7 km/h
Temperature: 25°F , -4°C
Wind Chill: 19°F , -7°C
Dew Point: 19°F , -7°C
Humidity: 80%
Barometer: 30.55 inHg , 1034.5 hPa
Summary: Light Snow
Clouds: Mostly cloudy
Visibility: 9 miles , 14 km
Cloud details: Mostly cloudy 12000 ft
2018/02/22 09:51 KSLK 220951Z AUTO 03004KT 9SM -SN BKN120 M04/M07 A3055 RMK AO2 SNB15 SLP367 P0000 T10441072
 
KSYR - Syracuse, New York, USA
Distance from station: W 73mi, 117km
Updated: Thu, 22-Feb-2018 4:54am EST
Overcast
Overcast
 Wind from WSW
Wind: WSW 3 mph , 6 km/h
Temperature: 34°F , 1°C
Dew Point: 30°F , -1°C
Humidity: 87%
Barometer: 30.62 inHg , 1036.9 hPa
Clouds: Overcast
Visibility: 10 miles , 16 km
Cloud details: Overcast 1200 ft
2018/02/22 09:54 KSYR 220954Z 24003KT 10SM OVC012 01/M01 A3062 RMK AO2 SLP369 T00061011 $
KBGM - Binghamton, New York, USA
Distance from station: SW 78mi, 126km
Updated: Thu, 22-Feb-2018 4:53am EST
Overcast
Overcast
 Wind from N
Wind: N 8 mph , 13 km/h
Temperature: 30°F , -1°C
Wind Chill: 22°F , -6°C
Dew Point: 27°F , -3°C
Humidity: 86%
Barometer: 30.53 inHg , 1033.9 hPa
Clouds: Overcast
Visibility: 10 miles , 16 km
Cloud details: Overcast 6500 ft
2018/02/22 09:53 KBGM 220953Z AUTO 36007KT 10SM UP OVC065 M01/M03 A3053 RMK AO2 UPE00B35 SLP353 P0000 T10061033
 
KRME - Rome, New York, USA
Distance from station: WNW 43mi, 69km
Updated: Thu, 22-Feb-2018 4:53am EST
Overcast
Overcast
 Wind from NW
Wind: NW 3 mph , 6 km/h
Temperature: 32°F , 0°C
Dew Point: 30°F , -1°C
Humidity: 93%
Barometer: 30.62 inHg , 1036.9 hPa
Clouds: Overcast
Visibility: 10 miles , 16 km
Cloud details: Few Clouds 900 ft
Overcast 9500 ft
2018/02/22 09:53 KRME 220953Z AUTO 31003KT 10SM FEW009 OVC095 00/M01 A3062 RMK AO2 SLP373 T00001011
KJFK - New York, New York, USA
Distance from station: SSE 159mi, 256km
Updated: Thu, 22-Feb-2018 4:51am EST
Overcast
Overcast
 Wind from N
Wind: N 14 mph , 22 km/h
Temperature: 48°F , 9°C
Wind Chill: 42°F , 6°C
Dew Point: 36°F , 2°C
Humidity: 62%
Barometer: 30.53 inHg , 1033.9 hPa
Clouds: Overcast
Visibility: 10 miles , 16 km
Cloud details: Overcast 4900 ft
2018/02/22 09:51 KJFK 220951Z 01012KT 10SM OVC049 09/02 A3053 RMK AO2 SLP338 T00940022
 
KROC - Rochester, New York, USA
Distance from station: W 150mi, 242km
Updated: Thu, 22-Feb-2018 4:54am EST
Overcast
Overcast
 Wind from NNW
Wind: NNW 5 mph , 7 km/h
Temperature: 32°F , 0°C
Wind Chill: 27°F , -3°C
Dew Point: 28°F , -2°C
Humidity: 87%
Barometer: 30.64 inHg , 1037.6 hPa
Clouds: Overcast
Visibility: 10 miles , 16 km
Cloud details: Mostly cloudy 1200 ft
Mostly cloudy 2100 ft
Overcast 10000 ft
2018/02/22 09:54 KROC 220954Z 34004KT 10SM BKN012 BKN021 OVC100 00/M02 A3064 RMK AO2 SLP386 T00001022
KART - Watertown, New York, USA
Distance from station: NNW 103mi, 166km
Updated: Thu, 22-Feb-2018 4:56am EST
Clear
Clear
 Wind from NE
Wind: NE 9 mph , 15 km/h
Temperature: 30°F , -1°C
Wind Chill: 22°F , -6°C
Dew Point: 25°F , -4°C
Humidity: 80%
Barometer: 30.65 inHg , 1037.9 hPa
Clouds: Clear
Visibility: 10 miles , 16 km
2018/02/22 09:56 KART 220956Z AUTO 04008KT 10SM CLR M01/M04 A3065 RMK AO2 SLP383 T10061044
 
KELM - Elmira-Corning, New York, USA
Distance from station: SSW 121mi, 195km
Updated: Thu, 22-Feb-2018 4:53am EST
Overcast
Overcast
 Wind from NE
Wind: NE 8 mph , 13 km/h
Temperature: 34°F , 1°C
Wind Chill: 27°F , -3°C
Dew Point: 27°F , -3°C
Humidity: 75%
Barometer: 30.58 inHg , 1035.6 hPa
Clouds: Overcast
Visibility: 10 miles , 16 km
Cloud details: Overcast 7500 ft
2018/02/22 09:53 KELM 220953Z AUTO 05007KT 10SM OVC075 01/M03 A3058 RMK AO2 SLP362 T00111033
KJHW - Jamestown, New York, USA
Distance from station: SW 238mi, 383km
Updated: Thu, 22-Feb-2018 4:56am EST

 
2018/02/22 09:56 KJHW 220956Z AUTO RMK AO2 SLPNO PWINO FZRANO RVRNO $
 
KMSS - Massena, New York, USA
Distance from station: N 141mi, 232km
Updated: Thu, 22-Feb-2018 4:53am EST
Clear
Clear
 Wind from NNE
Wind: NNE 3 mph , 6 km/h
Temperature: 25°F , -4°C
Dew Point: 12°F , -11°C
Humidity: 59%
Barometer: 30.71 inHg , 1040 hPa
Clouds: Clear
Visibility: 10 miles , 16 km
2018/02/22 09:53 KMSS 220953Z AUTO 03003KT 10SM CLR M04/M11 A3071 RMK AO2 SLP406 T10441111 $
KBUF - Buffalo, New York, USA
Distance from station: W 204mi, 328km
Updated: Thu, 22-Feb-2018 4:54am EST
Overcast
Overcast
 Wind from NE
Wind: NE 8 mph , 13 km/h
Temperature: 30°F , -1°C
Wind Chill: 22°F , -6°C
Dew Point: 25°F , -4°C
Humidity: 80%
Barometer: 30.62 inHg , 1036.9 hPa
Clouds: Overcast
Visibility: 10 miles , 16 km
Cloud details: Few Clouds 1400 ft
Overcast 10000 ft
2018/02/22 09:54 KBUF 220954Z 04007KT 10SM FEW014 OVC100 M01/M04 A3062 RMK AO2 SLP378 T10111039